עמוד ראשי
METAR-TAF:

METAR-TAF

שדות תעופה :

Reyes, בוליביה

קו רוחב: 14-19S, קו אורך: 067-23W, גובה: 140מטר

תצפית מזג אוויר נוכחית

הדו"ח נערך לפני 3 שעות ו 57דקות, בשעה 22:00 UTC
רוח רגועה
טמפרטורת 25 צלסיוס
לחות 69%
לחץ 1013 hPa
ראות 10 קילומטר או יותר

METAR: SLRY 202200Z 00000KT 9999 NSC 25/19 Q1013

זמן: 21:57 (01:57 UTC)


TAF: חסר

תצפיות ותחזיות מזג אוויר לגבי יותר מ- 4,000 שדות תעופה ברחבי העולם. דוחות METAR ו- TAF.

התחנות הזמינות מסומנות בנקודות צהובות ואדומות על גבי המפה.

העבר את העכבר לנקודה הצבעונית על מנת לראות את שם התחנה.

לאחר מכן, לחץ כדי לראות את תוכן ואת תחזיות מזג האוויר.

כדי לשנות את המפה: לחץ על הכפתורים הירוקים עם הפלוס השחור כדי להתקרב; על הכפתור הירוק עם המקף כדי להתרחק; או בחיצים הירוקים למפות סמוכות.


METAR-TAF: